AirNav   Everest Fuels
 
 926 users online  

05KY Cartersville Airport
Berea, Kentucky, USA

GOING TO BEREA?


FAA INFORMATION EFFECTIVE 10 OCTOBER 2019

Location

FAA Identifier: 05KY
Lat/Long: 37-32-08.0000N 084-24-26.0000W
37-32.133333N 084-24.433333W
37.5355556,-84.4072222
(estimated)
Elevation: 1070 ft. / 326 m (estimated)
From city: 8 miles W of BEREA, KY
Time zone: UTC -4 (UTC -5 during Standard Time)
Zip code: 40461

Airport Operations

Airport use: Private use. Permission required prior to landing
Activation date: 04/2006
Control tower: no
ARTCC: INDIANAPOLIS CENTER
FSS: LOUISVILLE FLIGHT SERVICE STATION
Attendance: IRREG
Wind indicator: yes
Segmented circle: no
Airline operations: BY PERMISSION ONLY.

Airport Communications

WX AWOS-3 at RGA (7 nm NE): 119.625 (859-985-5969)
WX AWOS-3 at DVK (17 nm W): 128.325 (859-854-0058)

Nearby radio navigation aids

VOR radial/distance  VOR name  Freq  Var
HYKr173/26.0LEXINGTON VOR/DME112.6000E
LOZr338/33.3LONDON VOR/DME116.1003W

 
NDB name  Hdg/Dist  Freq  Var  ID
GOODALL101/17.131103WDVK -.. ...- -.-
SECO236/22.339303WXYC -..- -.-- -.-.
CUMBERLAND RIVER027/34.938805WCDX -.-. -.. -..-
MOUNT STERLING219/37.421006WIOB .. --- -...

Airport Services

Runway Information

Runway 2/20

Dimensions: 1270 x 75 ft. / 387 x 23 m
Surface: turf
RUNWAY 2  RUNWAY 20
Traffic pattern: leftleft
Displaced threshold: 150 ft.
DISP THLD MKD WITH CONCRETE PADS ON EDGE.
no
Obstructions: 50 ft. trees, 100 ft. from runwaynone

Airport Ownership and Management from official FAA records

Ownership: Privately-owned
Owner: JOHNNIE W. BULLENS
4194 CARTERSVILLE ROAD
PAINT LICK, KY 40461
Phone 859-925-3248
Manager: JOHNNIE W. BULLENS
4194 CARTERSVILLE ROAD
PAINT LICK, KY 40461
Phone 859-925-3248

Airport Operational Statistics

Aircraft based on the field: 1
Single engine airplanes: 1
    

Additional Remarks

APCH FM NE ONLY TO RY 20 ONLY. DEPART TO NE ONLY RY 2.
RY RISES 40 FT AT MIDFIELD - GRADUAL 10% - ONE WAY IN - ONE WAY OUT.
FOR CD CTC LEXINGTON APCH AT 859-514-7890.
(CONTACT TITLE) OWNER/MANAGER FLYBOY_40461@YAHOO.COM

Instrument Procedures

There are no published instrument procedures at 05KY.

Some nearby airports with instrument procedures:

KRGA - Central Kentucky Regional Airport (7 nm NE)
KDVK - Stuart Powell Field Airport (17 nm W)
KSME - Lake Cumberland Regional Airport (31 nm S)
KLOZ - London-Corbin Airport-Magee Field (31 nm SE)
KLEX - Blue Grass Airport (32 nm N)
 
Loc | Ops | Rwys | IFR | FBO | Links
Com | Nav | Svcs | Stats | Notes
Area around 05KY (Cartersville Airport)
 
Road maps at: MapQuest Bing Google
 
Aerial photo
No photo
 
Sectional chart

 
Airport distance calculator
Flying to Cartersville Airport? Find the distance to fly.

From to 05KY

Sunrise and sunset
Times for 16-Oct-2019
 Local
(UTC-4)
 Zulu
(UTC)
Morning civil twilight07:2111:21
Sunrise07:4811:48
Sunset18:5922:59
Evening civil twilight19:2523:25

Current date and time
Zulu (UTC)  17-Oct-2019 01:48:17
Local (UTC-4)  16-Oct-2019 21:48:17
 
METAR
KRGA 
7nm NE 
170135Z AUTO 26007KT 10SM BKN050 08/03 A3002 RMK AO2
KDVK 
17nm W 
170135Z AUTO 27005KT 10SM BKN050 07/02 A3005 RMK AO2
TAF
KSME 
31nm S 
161738Z 1618/1718 29010G19KT P6SM SCT030 FM170200 28007KT P6SM SCT030
KLEX 
31nm N 
161720Z 1618/1718 30014G24KT P6SM SCT030 BKN035 FM170000 29010KT P6SM BKN035
KLOZ 
32nm SE 
161738Z 1618/1718 29010G18KT P6SM SCT030 FM170200 28007KT P6SM SCT030
NOTAMs
Click for the latest NOTAMs
NOTAMs are issued by the DoD/FAA and will open in a separate window not controlled by AirNav.

 

 
 

Would you like to see your business listed on this page?

 If your business provides an interesting product or service to pilots, flight crews, aircraft, or users of the Cartersville Airport, you should consider listing it here.  To start the listing process, click on the button below
 
Add a business
 

Other Pages about Cartersville Airport

Update a link
 
Copyright © AirNav, LLC. All rights reserved. Privacy Policy  Contact